N51CW KCOS-KSLC
Flight info
| Callsign | N51CW |
|---|---|
| Flight time | N/A |
| Altitude | 44000 |
| Route | DRAKE V83 PUB/N0485F430 HBU HELPR PITTT2 |
| Aircraft | C700/M-SBDGHM1RWXY/LB2 |
Departure
| Time | 2026-04-18 03:03 |
|---|---|
| Airport | City of Colorado Springs Municipal Airport (KCOS) |
Arrival
| Time | N/A |
|---|---|
| Airport | Salt Lake City International Airport (KSLC) |
| Time | Latitude | Longitude | Altitude | Speed | Heading |
|---|---|---|---|---|---|
| 2026-04-18 02:30 | 38.80889 | -104.72017 | 6187 ft | 0 kts | 184° |
| 2026-04-18 02:56 | 38.80779 | -104.71961 | 6187 ft | 16 kts | 172° |
| 2026-04-18 02:57 | 38.80672 | -104.71958 | 6187 ft | 16 kts | 178° |
| 2026-04-18 02:57 | 38.80623 | -104.71868 | 6187 ft | 14 kts | 92° |
| 2026-04-18 02:57 | 38.80602 | -104.71750 | 6186 ft | 14 kts | 138° |
| 2026-04-18 02:57 | 38.80502 | -104.71733 | 6187 ft | 15 kts | 180° |
| 2026-04-18 02:58 | 38.80397 | -104.71734 | 6185 ft | 15 kts | 180° |
| 2026-04-18 02:58 | 38.80291 | -104.71735 | 6186 ft | 15 kts | 180° |
| 2026-04-18 02:58 | 38.80184 | -104.71733 | 6188 ft | 16 kts | 179° |
| 2026-04-18 02:58 | 38.80073 | -104.71732 | 6186 ft | 16 kts | 179° |
| 2026-04-18 02:59 | 38.79964 | -104.71733 | 6187 ft | 16 kts | 181° |
| 2026-04-18 02:59 | 38.79854 | -104.71737 | 6186 ft | 16 kts | 179° |
| 2026-04-18 02:59 | 38.79745 | -104.71736 | 6186 ft | 16 kts | 179° |
| 2026-04-18 02:59 | 38.79634 | -104.71737 | 6188 ft | 16 kts | 181° |
| 2026-04-18 03:00 | 38.79528 | -104.71737 | 6186 ft | 15 kts | 187° |
| 2026-04-18 03:00 | 38.79438 | -104.71737 | 6186 ft | 7 kts | 179° |
| 2026-04-18 03:00 | 38.79417 | -104.71735 | 6186 ft | 0 kts | 167° |
| 2026-04-18 03:01 | 38.79412 | -104.71732 | 6186 ft | 5 kts | 158° |
| 2026-04-18 03:02 | 38.79401 | -104.71636 | 6185 ft | 15 kts | 78° |
| 2026-04-18 03:02 | 38.79539 | -104.71599 | 6187 ft | 49 kts | 1° |
| 2026-04-18 03:02 | 38.80195 | -104.71598 | 6182 ft | 137 kts | 1° |
| 2026-04-18 03:02 | 38.81385 | -104.71607 | 6448 ft | 202 kts | 359° |
| 2026-04-18 03:03 | 38.83028 | -104.71365 | 6615 ft | 265 kts | 16° |
| 2026-04-18 03:03 | 38.84626 | -104.70702 | 7502 ft | 208 kts | 17° |
| 2026-04-18 03:03 | 38.85779 | -104.70220 | 8460 ft | 148 kts | 14° |
| 2026-04-18 03:03 | 38.86691 | -104.69839 | 8872 ft | 153 kts | 13° |
| 2026-04-18 03:04 | 38.87982 | -104.69245 | 8640 ft | 233 kts | 18° |
| 2026-04-18 03:04 | 38.89653 | -104.68450 | 8503 ft | 276 kts | 18° |
| 2026-04-18 03:04 | 38.91475 | -104.67607 | 9277 ft | 275 kts | 17° |
| 2026-04-18 03:04 | 38.93292 | -104.66743 | 10097 ft | 280 kts | 17° |
| 2026-04-18 03:05 | 38.95190 | -104.65822 | 10412 ft | 304 kts | 17° |
| 2026-04-18 03:05 | 38.97193 | -104.64839 | 11149 ft | 309 kts | 17° |
| 2026-04-18 03:05 | 38.99219 | -104.63840 | 11889 ft | 315 kts | 17° |
| 2026-04-18 03:05 | 39.01119 | -104.62338 | 12628 ft | 329 kts | 39° |
| 2026-04-18 03:06 | 39.02510 | -104.59961 | 13342 ft | 342 kts | 62° |
| 2026-04-18 03:06 | 39.03087 | -104.56972 | 14049 ft | 350 kts | 87° |
| 2026-04-18 03:06 | 39.02711 | -104.53917 | 14640 ft | 354 kts | 113° |
| 2026-04-18 03:06 | 39.01351 | -104.51322 | 15227 ft | 351 kts | 141° |
| 2026-04-18 03:07 | 38.99291 | -104.49759 | 15838 ft | 342 kts | 168° |
| 2026-04-18 03:07 | 38.96972 | -104.49206 | 16461 ft | 338 kts | 180° |
| 2026-04-18 03:07 | 38.94614 | -104.48977 | 17040 ft | 341 kts | 182° |
| 2026-04-18 03:07 | 38.92242 | -104.48650 | 17586 ft | 347 kts | 178° |
| 2026-04-18 03:08 | 38.89852 | -104.48054 | 18092 ft | 352 kts | 174° |
| 2026-04-18 03:08 | 38.87446 | -104.47702 | 18514 ft | 342 kts | 192° |
| 2026-04-18 03:08 | 38.85267 | -104.48636 | 18908 ft | 325 kts | 218° |
| 2026-04-18 03:08 | 38.83755 | -104.50673 | 19279 ft | 313 kts | 243° |
| 2026-04-18 03:09 | 38.82905 | -104.53216 | 19616 ft | 310 kts | 256° |
| 2026-04-18 03:09 | 38.82636 | -104.55945 | 19936 ft | 310 kts | 270° |
| 2026-04-18 03:09 | 38.82995 | -104.58678 | 20239 ft | 313 kts | 283° |
| 2026-04-18 03:09 | 38.83618 | -104.61318 | 20509 ft | 314 kts | 284° |
| 2026-04-18 03:10 | 38.84230 | -104.64007 | 20794 ft | 313 kts | 281° |
| 2026-04-18 03:10 | 38.84707 | -104.66731 | 21085 ft | 313 kts | 279° |
| 2026-04-18 03:10 | 38.85153 | -104.69477 | 21363 ft | 313 kts | 279° |
| 2026-04-18 03:10 | 38.85649 | -104.72199 | 21644 ft | 314 kts | 280° |
| 2026-04-18 03:11 | 38.86163 | -104.74925 | 21928 ft | 314 kts | 280° |
| 2026-04-18 03:11 | 38.86659 | -104.77658 | 22208 ft | 315 kts | 279° |
| 2026-04-18 03:11 | 38.87144 | -104.80394 | 22512 ft | 315 kts | 279° |
| 2026-04-18 03:11 | 38.87638 | -104.83143 | 22769 ft | 315 kts | 279° |
| 2026-04-18 03:12 | 38.88126 | -104.85829 | 23618 ft | 296 kts | 279° |
| 2026-04-18 03:12 | 38.88576 | -104.88298 | 24554 ft | 277 kts | 278° |
| 2026-04-18 03:12 | 38.89005 | -104.90725 | 24765 ft | 281 kts | 278° |
| 2026-04-18 03:12 | 38.89438 | -104.93178 | 24963 ft | 284 kts | 278° |
| 2026-04-18 03:13 | 38.89887 | -104.95693 | 24955 ft | 294 kts | 278° |
| 2026-04-18 03:13 | 38.90353 | -104.98292 | 24946 ft | 303 kts | 279° |
| 2026-04-18 03:13 | 38.90824 | -105.00928 | 24876 ft | 311 kts | 279° |
| 2026-04-18 03:13 | 38.91312 | -105.03667 | 24883 ft | 318 kts | 279° |
| 2026-04-18 03:14 | 38.91805 | -105.06438 | 25268 ft | 311 kts | 279° |
| 2026-04-18 03:14 | 38.92273 | -105.09023 | 26428 ft | 282 kts | 278° |
| 2026-04-18 03:14 | 38.92699 | -105.11416 | 27071 ft | 274 kts | 278° |
| 2026-04-18 03:14 | 38.93117 | -105.13828 | 27262 ft | 278 kts | 278° |
| 2026-04-18 03:15 | 38.93543 | -105.16253 | 27543 ft | 279 kts | 278° |
| 2026-04-18 03:15 | 38.93974 | -105.18679 | 27808 ft | 280 kts | 278° |
| 2026-04-18 03:15 | 38.94408 | -105.21126 | 28066 ft | 281 kts | 278° |
| 2026-04-18 03:15 | 38.94839 | -105.23576 | 28330 ft | 282 kts | 278° |
| 2026-04-18 03:16 | 38.95274 | -105.26049 | 28590 ft | 284 kts | 278° |
| 2026-04-18 03:16 | 38.95709 | -105.28524 | 28849 ft | 285 kts | 278° |
| 2026-04-18 03:16 | 38.96147 | -105.31017 | 29106 ft | 286 kts | 278° |
| 2026-04-18 03:16 | 38.96588 | -105.33535 | 29367 ft | 288 kts | 278° |
| 2026-04-18 03:17 | 38.97023 | -105.36023 | 29604 ft | 289 kts | 278° |
| 2026-04-18 03:17 | 38.97465 | -105.38550 | 29812 ft | 291 kts | 278° |
| 2026-04-18 03:17 | 38.97910 | -105.41096 | 30060 ft | 292 kts | 278° |
| 2026-04-18 03:17 | 38.98355 | -105.43649 | 30258 ft | 293 kts | 278° |
| 2026-04-18 03:18 | 38.98803 | -105.46222 | 30428 ft | 295 kts | 278° |
| 2026-04-18 03:18 | 38.99252 | -105.48805 | 30562 ft | 296 kts | 278° |
| 2026-04-18 03:18 | 38.99697 | -105.51363 | 30722 ft | 297 kts | 278° |
| 2026-04-18 03:18 | 39.00149 | -105.53971 | 30903 ft | 299 kts | 278° |
| 2026-04-18 03:19 | 39.00602 | -105.56588 | 31086 ft | 300 kts | 278° |
| 2026-04-18 03:19 | 39.01057 | -105.59222 | 31244 ft | 302 kts | 278° |
| 2026-04-18 03:19 | 39.01513 | -105.61862 | 31397 ft | 303 kts | 278° |
| 2026-04-18 03:19 | 39.01971 | -105.64516 | 31540 ft | 305 kts | 278° |
| 2026-04-18 03:20 | 39.02431 | -105.67187 | 31689 ft | 306 kts | 278° |
| 2026-04-18 03:20 | 39.02891 | -105.69865 | 31827 ft | 307 kts | 278° |
| 2026-04-18 03:20 | 39.03347 | -105.72524 | 31972 ft | 309 kts | 278° |
| 2026-04-18 03:20 | 39.03811 | -105.75225 | 32104 ft | 310 kts | 278° |
| 2026-04-18 03:21 | 39.04275 | -105.77940 | 32245 ft | 311 kts | 278° |
| 2026-04-18 03:21 | 39.04742 | -105.80672 | 32380 ft | 313 kts | 278° |
| 2026-04-18 03:21 | 39.05210 | -105.83416 | 32511 ft | 314 kts | 279° |
| 2026-04-18 03:21 | 39.05681 | -105.86174 | 32661 ft | 316 kts | 279° |
| 2026-04-18 03:22 | 39.06151 | -105.88941 | 32794 ft | 317 kts | 279° |
| 2026-04-18 03:22 | 39.06617 | -105.91684 | 32910 ft | 318 kts | 279° |
| 2026-04-18 03:22 | 39.07092 | -105.94480 | 33035 ft | 320 kts | 279° |
| 2026-04-18 03:22 | 39.07566 | -105.97282 | 33156 ft | 321 kts | 279° |
| 2026-04-18 03:23 | 39.08043 | -106.00101 | 33277 ft | 322 kts | 279° |
| 2026-04-18 03:23 | 39.08519 | -106.02924 | 33401 ft | 324 kts | 279° |
| 2026-04-18 03:23 | 39.08999 | -106.05768 | 33508 ft | 325 kts | 279° |
| 2026-04-18 03:23 | 39.09479 | -106.08621 | 33632 ft | 326 kts | 279° |
| 2026-04-18 03:24 | 39.10440 | -106.14349 | 33808 ft | 328 kts | 279° |
| 2026-04-18 03:24 | 39.10923 | -106.17225 | 33929 ft | 329 kts | 279° |
| 2026-04-18 03:24 | 39.11405 | -106.20111 | 34035 ft | 330 kts | 279° |
| 2026-04-18 03:25 | 39.11886 | -106.22997 | 34172 ft | 331 kts | 279° |
| 2026-04-18 03:25 | 39.12370 | -106.25899 | 34283 ft | 332 kts | 279° |
| 2026-04-18 03:25 | 39.12855 | -106.28806 | 34391 ft | 333 kts | 279° |
| 2026-04-18 03:25 | 39.13340 | -106.31728 | 34497 ft | 333 kts | 279° |
| 2026-04-18 03:26 | 39.14304 | -106.37544 | 34678 ft | 335 kts | 279° |
| 2026-04-18 03:26 | 39.15276 | -106.43427 | 34839 ft | 336 kts | 279° |
| 2026-04-18 03:27 | 39.16248 | -106.49337 | 34978 ft | 338 kts | 279° |
| 2026-04-18 03:27 | 39.17225 | -106.55281 | 35109 ft | 340 kts | 279° |
| 2026-04-18 03:28 | 39.17712 | -106.58264 | 35228 ft | 340 kts | 279° |
| 2026-04-18 03:28 | 39.18199 | -106.61243 | 35312 ft | 341 kts | 279° |
| 2026-04-18 03:28 | 39.19177 | -106.67245 | 35506 ft | 342 kts | 279° |
| 2026-04-18 03:29 | 39.20163 | -106.73325 | 35222 ft | 356 kts | 279° |
| 2026-04-18 03:29 | 39.21164 | -106.79487 | 35766 ft | 342 kts | 279° |
| 2026-04-18 03:30 | 39.22137 | -106.85533 | 35890 ft | 345 kts | 279° |
| 2026-04-18 03:30 | 39.23113 | -106.91603 | 36007 ft | 346 kts | 279° |
| 2026-04-18 03:31 | 39.24087 | -106.97688 | 36115 ft | 347 kts | 279° |
| 2026-04-18 03:31 | 39.25061 | -107.03789 | 36200 ft | 348 kts | 279° |
| 2026-04-18 03:32 | 39.26036 | -107.09922 | 36211 ft | 350 kts | 279° |
| 2026-04-18 03:32 | 39.27012 | -107.16081 | 36216 ft | 361 kts | 280° |
| 2026-04-18 03:33 | 39.27522 | -107.19318 | 36216 ft | 375 kts | 280° |
| 2026-04-18 03:33 | 39.28052 | -107.22679 | 36218 ft | 388 kts | 280° |
| 2026-04-18 03:33 | 39.29146 | -107.29626 | 36212 ft | 387 kts | 280° |
| 2026-04-18 03:34 | 39.30203 | -107.36378 | 36223 ft | 393 kts | 280° |
| 2026-04-18 03:34 | 39.30748 | -107.39886 | 36226 ft | 404 kts | 280° |
| 2026-04-18 03:34 | 39.31311 | -107.43489 | 36218 ft | 414 kts | 280° |
| 2026-04-18 03:35 | 39.32468 | -107.50930 | 36233 ft | 428 kts | 280° |
| 2026-04-18 03:35 | 39.33629 | -107.58437 | 36226 ft | 424 kts | 280° |
| 2026-04-18 03:36 | 39.34779 | -107.65910 | 36221 ft | 424 kts | 280° |
| 2026-04-18 03:36 | 39.35916 | -107.73332 | 36221 ft | 424 kts | 280° |
| 2026-04-18 03:37 | 39.37058 | -107.80821 | 36225 ft | 425 kts | 280° |
| 2026-04-18 03:37 | 39.38194 | -107.88306 | 36227 ft | 425 kts | 280° |
| 2026-04-18 03:38 | 39.39139 | -107.94552 | 36221 ft | 425 kts | 280° |
| 2026-04-18 03:38 | 39.40271 | -108.02070 | 36225 ft | 426 kts | 280° |
| 2026-04-18 03:39 | 39.41401 | -108.09606 | 36218 ft | 427 kts | 280° |
| 2026-04-18 03:39 | 39.42519 | -108.17104 | 36228 ft | 427 kts | 280° |
| 2026-04-18 03:40 | 39.43641 | -108.24665 | 36223 ft | 428 kts | 280° |
| 2026-04-18 03:40 | 39.44762 | -108.32246 | 36223 ft | 429 kts | 280° |
| 2026-04-18 03:41 | 39.45880 | -108.39845 | 36222 ft | 430 kts | 280° |
| 2026-04-18 03:41 | 39.46994 | -108.47452 | 36219 ft | 430 kts | 280° |
| 2026-04-18 03:42 | 39.48106 | -108.55082 | 36219 ft | 432 kts | 280° |
| 2026-04-18 03:42 | 39.49208 | -108.62687 | 36223 ft | 433 kts | 280° |
| 2026-04-18 03:43 | 39.50315 | -108.70360 | 36226 ft | 434 kts | 280° |
| 2026-04-18 03:43 | 39.51420 | -108.78055 | 36223 ft | 435 kts | 280° |
| 2026-04-18 03:44 | 39.52523 | -108.85773 | 36228 ft | 435 kts | 281° |
| 2026-04-18 03:44 | 39.53619 | -108.93476 | 36224 ft | 435 kts | 281° |
| 2026-04-18 03:45 | 39.54709 | -109.01185 | 36232 ft | 435 kts | 281° |
| 2026-04-18 03:45 | 39.55788 | -109.08849 | 36225 ft | 433 kts | 281° |
| 2026-04-18 03:46 | 39.56864 | -109.16534 | 36227 ft | 433 kts | 281° |
| 2026-04-18 03:46 | 39.57934 | -109.24206 | 36234 ft | 432 kts | 281° |
| 2026-04-18 03:47 | 39.58995 | -109.31861 | 36235 ft | 430 kts | 281° |
| 2026-04-18 03:47 | 39.60048 | -109.39489 | 36238 ft | 429 kts | 281° |
| 2026-04-18 03:48 | 39.61087 | -109.47056 | 36240 ft | 428 kts | 281° |
| 2026-04-18 03:48 | 39.62127 | -109.54668 | 36243 ft | 427 kts | 281° |
| 2026-04-18 03:49 | 39.63157 | -109.62252 | 36247 ft | 426 kts | 281° |
| 2026-04-18 03:49 | 39.64182 | -109.69830 | 36253 ft | 425 kts | 282° |
| 2026-04-18 03:50 | 39.65196 | -109.77373 | 36252 ft | 423 kts | 282° |
| 2026-04-18 03:50 | 39.66202 | -109.84884 | 36261 ft | 422 kts | 282° |
| 2026-04-18 03:51 | 39.67193 | -109.92327 | 36264 ft | 420 kts | 282° |
| 2026-04-18 03:51 | 39.68182 | -109.99794 | 36269 ft | 419 kts | 282° |
| 2026-04-18 03:52 | 39.69166 | -110.07266 | 36271 ft | 419 kts | 282° |
| 2026-04-18 03:52 | 39.70145 | -110.14718 | 36276 ft | 418 kts | 282° |
| 2026-04-18 03:53 | 39.71117 | -110.22173 | 36282 ft | 418 kts | 282° |
| 2026-04-18 03:53 | 39.71593 | -110.25849 | 35893 ft | 406 kts | 282° |
| 2026-04-18 03:53 | 39.72054 | -110.29418 | 35372 ft | 396 kts | 283° |
| 2026-04-18 03:54 | 39.72507 | -110.32915 | 34846 ft | 390 kts | 283° |
| 2026-04-18 03:54 | 39.72951 | -110.36344 | 34335 ft | 389 kts | 283° |
| 2026-04-18 03:54 | 39.73397 | -110.39810 | 33780 ft | 387 kts | 283° |
| 2026-04-18 03:54 | 39.73842 | -110.43276 | 33258 ft | 389 kts | 284° |
| 2026-04-18 03:55 | 39.74287 | -110.46749 | 32734 ft | 389 kts | 284° |
| 2026-04-18 03:55 | 39.74731 | -110.50216 | 32215 ft | 389 kts | 284° |
| 2026-04-18 03:55 | 39.75334 | -110.53631 | 31703 ft | 386 kts | 290° |
| 2026-04-18 03:55 | 39.76192 | -110.56874 | 31198 ft | 384 kts | 295° |
| 2026-04-18 03:56 | 39.77303 | -110.60015 | 30686 ft | 380 kts | 300° |
| 2026-04-18 03:56 | 39.78499 | -110.63085 | 30161 ft | 379 kts | 300° |
| 2026-04-18 03:56 | 39.79663 | -110.66160 | 29647 ft | 378 kts | 299° |
| 2026-04-18 03:56 | 39.80819 | -110.69220 | 29152 ft | 376 kts | 299° |
| 2026-04-18 03:57 | 39.83146 | -110.75284 | 28172 ft | 372 kts | 300° |
| 2026-04-18 03:57 | 39.84293 | -110.78298 | 27682 ft | 370 kts | 299° |
| 2026-04-18 03:57 | 39.85428 | -110.81294 | 27206 ft | 368 kts | 299° |
| 2026-04-18 03:58 | 39.86548 | -110.84244 | 26736 ft | 366 kts | 299° |
| 2026-04-18 03:58 | 39.87675 | -110.87203 | 26258 ft | 364 kts | 299° |
| 2026-04-18 03:58 | 39.88794 | -110.90154 | 25798 ft | 362 kts | 299° |
| 2026-04-18 03:58 | 39.89906 | -110.93091 | 25322 ft | 361 kts | 299° |
| 2026-04-18 03:59 | 39.91015 | -110.96022 | 24858 ft | 359 kts | 299° |
| 2026-04-18 03:59 | 39.92114 | -110.98933 | 24400 ft | 357 kts | 299° |
| 2026-04-18 03:59 | 39.93207 | -111.01825 | 23921 ft | 355 kts | 299° |
| 2026-04-18 03:59 | 39.94280 | -111.04661 | 23429 ft | 351 kts | 299° |
| 2026-04-18 04:00 | 39.95356 | -111.07522 | 22965 ft | 351 kts | 299° |
| 2026-04-18 04:00 | 39.96443 | -111.10410 | 22495 ft | 349 kts | 299° |
| 2026-04-18 04:00 | 39.97510 | -111.13241 | 22032 ft | 348 kts | 299° |
| 2026-04-18 04:00 | 39.98583 | -111.16049 | 21584 ft | 343 kts | 299° |
| 2026-04-18 04:01 | 39.99614 | -111.18804 | 21131 ft | 344 kts | 298° |
| 2026-04-18 04:01 | 40.00646 | -111.21604 | 20688 ft | 341 kts | 298° |
| 2026-04-18 04:01 | 40.01689 | -111.24390 | 20228 ft | 339 kts | 299° |
| 2026-04-18 04:01 | 40.02735 | -111.27157 | 19776 ft | 340 kts | 298° |
| 2026-04-18 04:02 | 40.03773 | -111.29927 | 19329 ft | 339 kts | 298° |
| 2026-04-18 04:02 | 40.04797 | -111.32682 | 18874 ft | 336 kts | 298° |
| 2026-04-18 04:02 | 40.05821 | -111.35432 | 18400 ft | 334 kts | 298° |
| 2026-04-18 04:02 | 40.06797 | -111.38047 | 17964 ft | 304 kts | 298° |
| 2026-04-18 04:03 | 40.07682 | -111.40423 | 17570 ft | 278 kts | 298° |
| 2026-04-18 04:03 | 40.08513 | -111.42644 | 17204 ft | 269 kts | 298° |
| 2026-04-18 04:03 | 40.09331 | -111.44835 | 16789 ft | 270 kts | 298° |
| 2026-04-18 04:03 | 40.10152 | -111.47036 | 16259 ft | 271 kts | 298° |
| 2026-04-18 04:04 | 40.10973 | -111.49255 | 15880 ft | 270 kts | 298° |
| 2026-04-18 04:04 | 40.11794 | -111.51469 | 15519 ft | 272 kts | 298° |
| 2026-04-18 04:04 | 40.12623 | -111.53695 | 15149 ft | 273 kts | 297° |
| 2026-04-18 04:04 | 40.13423 | -111.55935 | 15030 ft | 268 kts | 296° |
| 2026-04-18 04:05 | 40.14165 | -111.58164 | 15022 ft | 272 kts | 296° |
| 2026-04-18 04:05 | 40.14923 | -111.60423 | 15020 ft | 272 kts | 296° |
| 2026-04-18 04:05 | 40.15687 | -111.62686 | 15023 ft | 272 kts | 296° |
| 2026-04-18 04:05 | 40.16435 | -111.64904 | 15020 ft | 272 kts | 296° |
| 2026-04-18 04:06 | 40.17154 | -111.66639 | 15021 ft | 271 kts | 304° |
| 2026-04-18 04:06 | 40.18311 | -111.68577 | 15017 ft | 271 kts | 313° |
| 2026-04-18 04:06 | 40.19683 | -111.70257 | 15026 ft | 271 kts | 317° |
| 2026-04-18 04:06 | 40.21085 | -111.71912 | 15030 ft | 271 kts | 316° |
| 2026-04-18 04:07 | 40.22473 | -111.73582 | 15035 ft | 271 kts | 316° |
| 2026-04-18 04:07 | 40.23864 | -111.75251 | 15028 ft | 271 kts | 317° |
| 2026-04-18 04:07 | 40.25258 | -111.76913 | 15030 ft | 271 kts | 317° |
| 2026-04-18 04:07 | 40.26654 | -111.78580 | 15030 ft | 271 kts | 316° |
| 2026-04-18 04:08 | 40.28035 | -111.80233 | 14852 ft | 274 kts | 317° |
| 2026-04-18 04:08 | 40.29437 | -111.81912 | 14509 ft | 273 kts | 317° |
| 2026-04-18 04:08 | 40.30824 | -111.83573 | 14163 ft | 263 kts | 317° |
| 2026-04-18 04:08 | 40.32135 | -111.85142 | 13800 ft | 249 kts | 317° |
| 2026-04-18 04:09 | 40.33405 | -111.86667 | 13469 ft | 246 kts | 317° |
| 2026-04-18 04:09 | 40.34757 | -111.88035 | 13140 ft | 246 kts | 327° |
| 2026-04-18 04:09 | 40.36298 | -111.89033 | 12826 ft | 248 kts | 334° |
| 2026-04-18 04:09 | 40.37877 | -111.89935 | 12523 ft | 248 kts | 334° |
| 2026-04-18 04:10 | 40.39452 | -111.90862 | 12224 ft | 248 kts | 334° |
| 2026-04-18 04:10 | 40.41014 | -111.91782 | 11923 ft | 249 kts | 334° |
| 2026-04-18 04:10 | 40.42594 | -111.92707 | 11631 ft | 249 kts | 334° |
| 2026-04-18 04:10 | 40.44175 | -111.93631 | 11341 ft | 249 kts | 334° |
| 2026-04-18 04:11 | 40.45689 | -111.94719 | 11023 ft | 249 kts | 320° |
| 2026-04-18 04:11 | 40.47130 | -111.95977 | 10733 ft | 250 kts | 333° |
| 2026-04-18 04:11 | 40.48805 | -111.96558 | 10416 ft | 253 kts | 359° |
| 2026-04-18 04:11 | 40.50500 | -111.95890 | 10100 ft | 256 kts | 20° |
| 2026-04-18 04:12 | 40.52224 | -111.95570 | 9757 ft | 250 kts | 354° |
| 2026-04-18 04:12 | 40.53941 | -111.95879 | 9469 ft | 249 kts | 351° |
| 2026-04-18 04:12 | 40.55673 | -111.96044 | 9180 ft | 250 kts | 358° |
| 2026-04-18 04:12 | 40.57409 | -111.95888 | 8896 ft | 250 kts | 6° |
| 2026-04-18 04:13 | 40.59111 | -111.95431 | 8668 ft | 241 kts | 13° |
| 2026-04-18 04:13 | 40.60532 | -111.94882 | 8559 ft | 196 kts | 10° |
| 2026-04-18 04:13 | 40.61839 | -111.94763 | 8048 ft | 179 kts | 355° |
| 2026-04-18 04:13 | 40.63046 | -111.94939 | 7677 ft | 173 kts | 349° |
| 2026-04-18 04:14 | 40.64239 | -111.95171 | 7219 ft | 175 kts | 353° |
| 2026-04-18 04:14 | 40.65429 | -111.95185 | 6944 ft | 169 kts | 2° |
| 2026-04-18 04:14 | 40.66628 | -111.95194 | 6744 ft | 174 kts | 356° |
| 2026-04-18 04:14 | 40.67843 | -111.95201 | 6258 ft | 176 kts | 6° |
| 2026-04-18 04:15 | 40.69039 | -111.95191 | 5876 ft | 169 kts | 352° |
| 2026-04-18 04:15 | 40.70184 | -111.95554 | 5627 ft | 169 kts | 345° |
| 2026-04-18 04:15 | 40.71300 | -111.95937 | 5479 ft | 167 kts | 348° |
| 2026-04-18 04:15 | 40.72469 | -111.96146 | 5325 ft | 169 kts | 356° |
| 2026-04-18 04:16 | 40.73631 | -111.96217 | 5130 ft | 171 kts | 0° |
| 2026-04-18 04:16 | 40.74621 | -111.96208 | 4913 ft | 173 kts | 1° |